createdAt,value
2022-11-08T00:01:57.079Z,5.57
2022-11-08T00:04:15.262Z,4.80
2022-11-08T00:06:32.353Z,5.32
2022-11-08T00:08:49.452Z,5.70
2022-11-08T00:11:06.766Z,5.85
2022-11-08T00:13:24.884Z,6.43
2022-11-08T00:15:42.027Z,7.03
2022-11-08T00:17:59.200Z,6.00
2022-11-08T00:20:16.223Z,6.85
2022-11-08T00:22:33.376Z,6.45
2022-11-08T00:24:50.368Z,6.13
2022-11-08T00:27:07.383Z,5.97
2022-11-08T00:29:25.410Z,6.10
2022-11-08T00:31:42.461Z,6.57
2022-11-08T00:33:59.917Z,6.85
2022-11-08T00:36:16.904Z,6.30
2022-11-08T00:38:34.210Z,7.00
2022-11-08T00:40:51.537Z,6.90
2022-11-08T00:43:08.672Z,8.35
2022-11-08T00:45:25.751Z,7.53
2022-11-08T00:47:43.948Z,5.93
2022-11-08T00:50:02.098Z,5.05
2022-11-08T00:52:19.087Z,5.50
2022-11-08T00:54:36.996Z,5.85
2022-11-08T00:56:54.173Z,7.80
2022-11-08T00:59:16.076Z,6.90
2022-11-08T01:01:34.042Z,7.72
2022-11-08T01:03:51.188Z,7.70
2022-11-08T01:06:08.431Z,6.78
2022-11-08T01:08:26.767Z,7.40
2022-11-08T01:10:43.875Z,7.97
2022-11-08T01:13:02.592Z,7.68
2022-11-08T01:15:21.139Z,6.97
2022-11-08T01:17:39.188Z,7.63
2022-11-08T01:19:56.662Z,7.45
2022-11-08T01:22:13.649Z,8.18
2022-11-08T01:24:30.827Z,7.20
2022-11-08T01:26:48.729Z,6.80
2022-11-08T01:29:05.787Z,6.90
2022-11-08T01:31:23.155Z,5.90
2022-11-08T01:33:48.464Z,5.25
2022-11-08T01:36:08.641Z,5.03
2022-11-08T01:38:28.831Z,5.30
2022-11-08T01:40:48.588Z,5.35
2022-11-08T01:43:07.155Z,5.75
2022-11-08T01:45:24.180Z,6.28
2022-11-08T01:47:41.089Z,5.00
2022-11-08T01:49:58.519Z,4.45
2022-11-08T01:52:15.580Z,4.90
2022-11-08T01:54:32.723Z,4.63
2022-11-08T01:56:50.080Z,4.47
2022-11-08T01:59:07.490Z,5.38
2022-11-08T02:01:24.773Z,4.75
2022-11-08T02:03:41.901Z,4.93
2022-11-08T02:06:00.046Z,4.50
2022-11-08T02:08:17.642Z,5.32
2022-11-08T02:10:35.190Z,4.95
2022-11-08T02:12:52.514Z,4.97
2022-11-08T02:15:09.861Z,5.40
2022-11-08T02:17:27.193Z,4.88
2022-11-08T02:19:45.081Z,5.55
2022-11-08T02:22:02.418Z,5.43
2022-11-08T02:24:19.783Z,5.50
2022-11-08T02:26:37.712Z,4.30
2022-11-08T02:28:54.658Z,4.60
2022-11-08T02:31:11.950Z,4.32
2022-11-08T02:33:31.275Z,3.90
2022-11-08T02:35:48.311Z,4.32
2022-11-08T02:38:05.363Z,4.85
2022-11-08T02:40:24.705Z,4.38
2022-11-08T02:42:41.957Z,4.50
2022-11-08T02:44:59.210Z,4.32
2022-11-08T02:47:16.123Z,4.68
2022-11-08T02:49:33.457Z,4.30
2022-11-08T02:51:50.828Z,4.15
2022-11-08T02:54:08.867Z,4.65
2022-11-08T02:56:26.084Z,4.57
2022-11-08T02:58:44.105Z,4.20
2022-11-08T03:01:01.212Z,4.07
2022-11-08T03:03:20.289Z,4.18
2022-11-08T03:05:37.215Z,4.53
2022-11-08T03:07:54.655Z,4.88
2022-11-08T03:10:11.783Z,4.00
2022-11-08T03:12:28.974Z,3.83
2022-11-08T03:14:48.126Z,4.88
2022-11-08T03:17:05.197Z,4.28
2022-11-08T03:19:24.459Z,4.47
2022-11-08T03:21:41.592Z,4.90
2022-11-08T03:23:58.645Z,4.18
2022-11-08T03:26:15.674Z,3.80
2022-11-08T03:28:34.209Z,4.57
2022-11-08T03:30:51.256Z,4.88
2022-11-08T03:33:09.298Z,4.00
2022-11-08T03:35:26.587Z,4.30
2022-11-08T03:37:44.668Z,4.28
2022-11-08T03:40:01.919Z,4.10
2022-11-08T03:42:19.196Z,4.78
2022-11-08T03:44:38.861Z,4.60
2022-11-08T03:46:55.883Z,4.53
2022-11-08T03:49:12.978Z,4.75
2022-11-08T03:51:30.009Z,4.68
2022-11-08T03:53:48.995Z,4.28
2022-11-08T03:56:06.287Z,4.30
2022-11-08T03:58:23.523Z,4.50
2022-11-08T04:00:40.860Z,3.88
2022-11-08T04:02:58.221Z,4.10
2022-11-08T04:05:15.161Z,4.88
2022-11-08T04:07:34.905Z,4.72
2022-11-08T04:09:51.886Z,4.60
2022-11-08T04:12:10.484Z,4.10
2022-11-08T04:14:27.369Z,4.10
2022-11-08T04:16:44.693Z,4.68
2022-11-08T04:19:02.660Z,4.10
2022-11-08T04:21:19.593Z,3.90
2022-11-08T04:23:36.532Z,4.20
2022-11-08T04:25:53.625Z,4.18
2022-11-08T04:28:11.539Z,4.20
2022-11-08T04:30:28.999Z,3.90
2022-11-08T04:32:46.297Z,4.45
2022-11-08T04:35:04.257Z,4.07
2022-11-08T04:37:21.293Z,3.45
2022-11-08T04:39:39.636Z,3.58
2022-11-08T04:42:01.876Z,3.55
2022-11-08T04:44:19.783Z,3.50
2022-11-08T04:46:37.113Z,3.55
2022-11-08T04:48:55.378Z,3.80
2022-11-08T04:51:13.617Z,3.17
2022-11-08T04:53:30.918Z,3.58
2022-11-08T04:55:48.096Z,3.50
2022-11-08T04:58:05.096Z,3.17
2022-11-08T05:00:22.168Z,3.53
2022-11-08T05:02:39.330Z,3.20
2022-11-08T05:04:56.705Z,3.40
2022-11-08T05:07:13.628Z,3.25
2022-11-08T05:09:31.918Z,3.42
2022-11-08T05:11:48.925Z,3.25
2022-11-08T05:14:06.223Z,3.60
2022-11-08T05:16:24.237Z,3.60
2022-11-08T05:18:42.104Z,3.30
2022-11-08T05:20:59.589Z,3.40
2022-11-08T05:23:16.652Z,3.45
2022-11-08T05:25:33.984Z,3.88
2022-11-08T05:27:51.066Z,3.40
2022-11-08T05:30:08.301Z,3.58
2022-11-08T05:32:25.556Z,3.10
2022-11-08T05:34:42.552Z,3.15
2022-11-08T05:37:02.625Z,2.95
2022-11-08T05:39:19.944Z,3.40
2022-11-08T05:41:38.217Z,3.40
2022-11-08T05:43:55.535Z,3.25
2022-11-08T05:46:12.770Z,2.92
2022-11-08T05:48:30.024Z,3.25
2022-11-08T05:50:47.297Z,3.50
2022-11-08T05:53:04.252Z,3.67
2022-11-08T05:55:21.196Z,3.55
2022-11-08T05:57:38.135Z,3.70
2022-11-08T05:59:55.182Z,3.30
2022-11-08T06:02:12.207Z,3.28
2022-11-08T06:04:29.593Z,3.63
2022-11-08T06:06:47.906Z,3.67
2022-11-08T06:09:05.163Z,3.63
2022-11-08T06:11:22.450Z,3.10
2022-11-08T06:13:39.774Z,3.08
2022-11-08T06:15:57.044Z,3.10
2022-11-08T06:18:14.305Z,3.03
2022-11-08T06:20:31.373Z,2.92
2022-11-08T06:22:48.639Z,2.88
2022-11-08T06:25:05.652Z,3.50
2022-11-08T06:27:22.714Z,3.55
2022-11-08T06:29:39.766Z,3.33
2022-11-08T06:31:57.084Z,3.10
2022-11-08T06:34:14.307Z,3.60
2022-11-08T06:36:31.339Z,3.17
2022-11-08T06:38:48.279Z,3.50
2022-11-08T06:41:05.497Z,3.30
2022-11-08T06:43:24.017Z,3.33
2022-11-08T06:45:41.513Z,3.13
2022-11-08T06:47:58.831Z,3.17
2022-11-08T06:50:16.771Z,3.50
2022-11-08T06:52:33.723Z,3.50
2022-11-08T06:54:51.070Z,3.30
2022-11-08T06:57:07.931Z,3.30
2022-11-08T06:59:26.209Z,3.55
2022-11-08T07:01:45.816Z,43.35
2022-11-08T07:04:03.361Z,34.55
2022-11-08T07:06:20.862Z,22.17
2022-11-08T07:08:37.783Z,11.30
2022-11-08T07:10:54.759Z,4.75
2022-11-08T07:13:11.782Z,4.80
2022-11-08T07:15:29.061Z,4.78
2022-11-08T07:17:45.980Z,4.65
2022-11-08T07:20:03.314Z,4.43
2022-11-08T07:22:20.327Z,3.60
2022-11-08T07:24:37.254Z,4.00
2022-11-08T07:26:55.618Z,3.58
2022-11-08T07:29:15.921Z,3.65
2022-11-08T07:31:33.583Z,3.85
2022-11-08T07:33:50.562Z,3.40
2022-11-08T07:36:07.857Z,3.22
2022-11-08T07:38:25.050Z,2.95
2022-11-08T07:40:42.247Z,3.08
2022-11-08T07:43:15.482Z,2.83
2022-11-08T07:45:32.473Z,2.80
2022-11-08T07:47:50.261Z,3.40
2022-11-08T07:50:08.775Z,3.60
2022-11-08T07:52:25.758Z,10.35
2022-11-08T07:54:42.685Z,11.23
2022-11-08T07:57:01.031Z,5.35
2022-11-08T07:59:18.061Z,4.05
2022-11-08T08:01:35.981Z,4.30
2022-11-08T08:03:53.062Z,6.93
2022-11-08T08:06:10.298Z,6.07
2022-11-08T08:08:27.320Z,4.88
2022-11-08T08:10:44.372Z,4.30
2022-11-08T08:13:01.324Z,4.00
2022-11-08T08:15:18.305Z,4.13
2022-11-08T08:17:35.245Z,3.53
2022-11-08T08:19:53.509Z,3.60
2022-11-08T08:22:10.724Z,3.45
2022-11-08T08:24:27.853Z,3.17
2022-11-08T08:26:46.089Z,3.13
2022-11-08T08:29:03.401Z,3.08
2022-11-08T08:31:20.667Z,2.95
2022-11-08T08:33:38.080Z,3.10
2022-11-08T08:35:55.633Z,3.20
2022-11-08T08:38:13.629Z,3.40
2022-11-08T08:40:30.706Z,3.33
2022-11-08T08:42:48.545Z,4.00
2022-11-08T08:45:05.613Z,3.50
2022-11-08T08:47:24.175Z,3.40
2022-11-08T08:49:41.175Z,2.90
2022-11-08T08:51:58.190Z,4.07
2022-11-08T08:54:15.446Z,3.05
2022-11-08T08:56:33.484Z,3.08
2022-11-08T09:03:52.057Z,2.90
2022-11-08T09:06:09.352Z,3.22
2022-11-08T09:08:26.532Z,4.10
2022-11-08T09:10:43.511Z,3.70
2022-11-08T09:13:00.553Z,3.92
2022-11-08T09:15:18.456Z,3.33
2022-11-08T09:17:35.693Z,3.72
2022-11-08T09:19:56.941Z,4.35
2022-11-08T09:22:14.396Z,4.90
2022-11-08T09:24:31.448Z,5.60
2022-11-08T09:26:48.470Z,6.43
2022-11-08T09:29:05.342Z,7.30
2022-11-08T09:31:22.345Z,6.35
2022-11-08T09:33:40.340Z,5.60
2022-11-08T09:35:57.315Z,5.00
2022-11-08T09:38:14.444Z,4.00
2022-11-08T09:40:31.876Z,3.75
2022-11-08T09:42:49.136Z,3.83
2022-11-08T09:45:06.362Z,4.00
2022-11-08T09:47:23.284Z,3.72
2022-11-08T09:49:40.230Z,4.07
2022-11-08T09:51:57.470Z,4.28
2022-11-08T09:54:18.503Z,4.65
2022-11-08T09:56:36.496Z,4.88
2022-11-08T09:58:53.484Z,5.25
2022-11-08T10:01:10.741Z,5.00
2022-11-08T10:03:30.078Z,5.45
2022-11-08T10:05:47.202Z,5.40
2022-11-08T10:08:04.443Z,5.90
2022-11-08T10:10:23.930Z,6.65
2022-11-08T10:12:41.906Z,6.20
2022-11-08T10:14:58.884Z,5.68
2022-11-08T10:17:16.131Z,5.55
2022-11-08T10:19:34.137Z,6.00
2022-11-08T10:21:52.452Z,6.53
2022-11-08T10:24:09.687Z,6.20
2022-11-08T10:26:28.443Z,6.00
2022-11-08T10:28:45.392Z,5.63
2022-11-08T10:31:02.396Z,6.05
2022-11-08T10:33:19.799Z,5.93
2022-11-08T10:35:38.367Z,6.40
2022-11-08T10:37:56.305Z,6.10
2022-11-08T10:40:13.321Z,5.90
2022-11-08T10:42:30.512Z,5.75
2022-11-08T10:44:48.474Z,5.63
2022-11-08T10:47:05.424Z,5.53
2022-11-08T10:49:22.678Z,4.80
2022-11-08T10:51:39.697Z,4.95
2022-11-08T10:53:56.833Z,4.80
2022-11-08T10:56:15.166Z,4.15
2022-11-08T10:58:33.240Z,4.88
2022-11-08T11:00:50.471Z,5.15
2022-11-08T11:03:07.417Z,4.43
2022-11-08T11:05:24.306Z,3.97
2022-11-08T11:07:41.216Z,4.45
2022-11-08T11:09:58.472Z,4.90
2022-11-08T11:12:16.646Z,4.63
2022-11-08T11:14:33.565Z,4.00
2022-11-08T11:16:50.641Z,4.93
2022-11-08T11:19:07.522Z,4.30
2022-11-08T11:21:24.559Z,4.53
2022-11-08T11:23:41.624Z,4.22
2022-11-08T11:25:58.583Z,4.15
2022-11-08T11:28:15.781Z,3.83
2022-11-08T11:30:33.036Z,4.20
2022-11-08T11:32:50.011Z,6.07
2022-11-08T11:35:07.127Z,5.15
2022-11-08T11:37:25.039Z,5.32
2022-11-08T11:39:42.277Z,5.22
2022-11-08T11:42:05.304Z,4.90
2022-11-08T11:44:29.796Z,5.35
2022-11-08T11:46:47.035Z,4.85
2022-11-08T11:49:04.036Z,4.20
2022-11-08T11:51:22.139Z,4.30
2022-11-08T11:53:40.902Z,5.20
2022-11-08T11:55:59.813Z,4.53
2022-11-08T11:58:17.024Z,4.78
2022-11-08T12:00:34.114Z,4.40
2022-11-08T12:02:51.062Z,4.13
2022-11-08T12:05:08.231Z,4.22
2022-11-08T12:07:25.257Z,4.10
2022-11-08T12:09:42.255Z,3.85
2022-11-08T12:12:00.469Z,3.58
2022-11-08T12:14:17.484Z,3.50
2022-11-08T12:16:34.686Z,4.13
2022-11-08T12:18:52.141Z,4.10
2022-11-08T12:21:09.367Z,3.05
2022-11-08T12:23:26.574Z,2.70
2022-11-08T12:25:43.579Z,2.70
2022-11-08T12:28:00.497Z,2.78
2022-11-08T12:30:19.039Z,3.00
2022-11-08T12:32:35.949Z,2.53
2022-11-08T12:34:53.171Z,2.30
2022-11-08T12:37:10.188Z,2.42
2022-11-08T12:39:27.230Z,2.17
2022-11-08T12:41:45.144Z,1.88
2022-11-08T12:44:02.152Z,1.85
2022-11-08T12:46:20.344Z,1.73
2022-11-08T12:48:37.291Z,1.80
2022-11-08T12:50:58.943Z,1.70
2022-11-08T12:53:18.381Z,1.80
2022-11-08T12:55:35.591Z,1.77
2022-11-08T12:57:52.866Z,1.90
2022-11-08T13:00:10.165Z,1.98
2022-11-08T13:02:27.154Z,1.80
2022-11-08T13:04:44.152Z,1.88
2022-11-08T13:07:01.587Z,1.70
2022-11-08T13:09:18.521Z,1.65
2022-11-08T13:11:35.543Z,1.67
2022-11-08T13:13:52.514Z,1.70
2022-11-08T13:16:09.431Z,1.83
2022-11-08T13:18:26.452Z,1.90
2022-11-08T13:20:43.427Z,1.98
2022-11-08T13:23:01.697Z,2.03
2022-11-08T13:25:18.626Z,1.88
2022-11-08T13:27:35.887Z,2.22
2022-11-08T13:29:52.882Z,1.88
2022-11-08T13:32:09.855Z,1.63
2022-11-08T13:34:27.309Z,1.80
2022-11-08T13:36:44.213Z,1.85
2022-11-08T13:39:02.351Z,3.00
2022-11-08T13:41:19.610Z,2.28
2022-11-08T13:43:36.643Z,2.00
2022-11-08T13:45:53.697Z,2.10
2022-11-08T13:48:13.590Z,2.50
2022-11-08T13:50:31.608Z,2.10
2022-11-08T13:52:48.639Z,2.47
2022-11-08T13:55:05.848Z,2.38
2022-11-08T13:57:23.161Z,2.13
2022-11-08T13:59:40.198Z,1.92
2022-11-08T14:01:57.282Z,2.30
2022-11-08T14:04:14.532Z,2.00
2022-11-08T14:06:31.735Z,1.80
2022-11-08T14:08:48.766Z,2.20
2022-11-08T14:11:05.818Z,2.85
2022-11-08T14:13:22.744Z,2.70
2022-11-08T14:15:39.947Z,2.70
2022-11-08T14:17:57.186Z,2.50
2022-11-08T14:20:14.170Z,3.05
2022-11-08T14:22:31.427Z,2.67
2022-11-08T14:24:48.748Z,2.15
2022-11-08T14:27:05.668Z,1.90
2022-11-08T14:29:22.621Z,2.67
2022-11-08T14:31:39.617Z,2.10
2022-11-08T14:33:56.553Z,2.00
2022-11-08T14:36:13.536Z,1.92
2022-11-08T14:38:30.778Z,2.42
2022-11-08T14:40:48.757Z,2.10
2022-11-08T14:43:06.770Z,2.40
2022-11-08T14:45:26.041Z,2.00
2022-11-08T14:47:43.288Z,2.22
2022-11-08T14:50:01.501Z,1.73
2022-11-08T14:52:19.748Z,2.13
2022-11-08T14:54:38.025Z,2.03
2022-11-08T14:56:55.266Z,2.00
2022-11-08T14:59:12.540Z,2.72
2022-11-08T15:01:29.633Z,2.72
2022-11-08T15:03:47.037Z,2.30
2022-11-08T15:06:03.968Z,2.53
2022-11-08T15:08:21.139Z,2.42
2022-11-08T15:10:38.461Z,4.18
2022-11-08T15:12:55.505Z,3.50
2022-11-08T15:15:12.749Z,2.88
2022-11-08T15:17:29.735Z,3.58
2022-11-08T15:19:46.969Z,4.45
2022-11-08T15:22:04.005Z,4.43
2022-11-08T15:24:21.242Z,2.80
2022-11-08T15:26:38.278Z,3.45
2022-11-08T15:28:55.516Z,3.05
2022-11-08T15:31:12.751Z,3.80
2022-11-08T15:33:29.784Z,4.10
2022-11-08T15:35:46.745Z,2.90
2022-11-08T15:38:03.778Z,2.67
2022-11-08T15:40:21.830Z,2.53
2022-11-08T15:42:43.332Z,2.95
2022-11-08T15:45:01.609Z,3.47
2022-11-08T15:47:18.627Z,5.32
2022-11-08T15:49:35.950Z,6.63
2022-11-08T15:51:53.183Z,5.45
2022-11-08T15:54:10.210Z,5.18
2022-11-08T15:56:27.248Z,4.93
2022-11-08T15:58:44.167Z,3.70
2022-11-08T16:01:01.521Z,3.20
2022-11-08T16:03:18.588Z,3.42
2022-11-08T16:05:35.489Z,3.67
2022-11-08T16:07:52.733Z,3.90
2022-11-08T16:10:09.966Z,3.22
2022-11-08T16:12:27.001Z,2.70
2022-11-08T16:14:44.230Z,2.83
2022-11-08T16:17:01.210Z,2.60
2022-11-08T16:19:18.131Z,2.83
2022-11-08T16:21:35.358Z,2.40
2022-11-08T16:23:52.357Z,3.35
2022-11-08T16:26:09.247Z,2.45
2022-11-08T16:28:26.342Z,2.67
2022-11-08T16:30:44.336Z,2.33
2022-11-08T16:33:01.700Z,2.70
2022-11-08T16:35:18.888Z,2.63
2022-11-08T16:37:35.893Z,2.88
2022-11-08T16:39:52.954Z,2.80
2022-11-08T16:42:09.871Z,2.63
2022-11-08T16:44:27.126Z,2.50
2022-11-08T16:46:44.043Z,2.38
2022-11-08T16:49:01.086Z,2.20
2022-11-08T16:51:18.051Z,2.40
2022-11-08T16:53:35.388Z,2.58
2022-11-08T16:55:52.699Z,2.30
2022-11-08T16:58:09.719Z,2.00
2022-11-08T17:00:26.759Z,2.30
2022-11-08T17:02:43.749Z,1.88
2022-11-08T17:05:01.745Z,2.38
2022-11-08T17:07:18.821Z,2.05
2022-11-08T17:09:35.905Z,2.30
2022-11-08T17:11:53.114Z,1.98
2022-11-08T17:14:10.344Z,2.47
2022-11-08T17:16:27.371Z,2.03
2022-11-08T17:18:47.435Z,1.95
2022-11-08T17:21:23.228Z,2.38
2022-11-08T17:23:43.771Z,2.40
2022-11-08T17:26:01.080Z,2.70
2022-11-08T17:28:18.376Z,2.42
2022-11-08T17:30:35.879Z,2.33
2022-11-08T17:32:52.894Z,2.40
2022-11-08T17:35:09.964Z,2.58
2022-11-08T17:37:26.988Z,2.50
2022-11-08T17:39:45.162Z,2.60
2022-11-08T17:42:02.227Z,2.40
2022-11-08T17:44:19.428Z,2.40
2022-11-08T17:46:37.396Z,2.50
2022-11-08T17:48:54.612Z,2.17
2022-11-08T17:51:11.874Z,2.40
2022-11-08T17:53:28.808Z,3.08
2022-11-08T17:55:46.042Z,3.35
2022-11-08T17:58:03.111Z,3.97
2022-11-08T18:00:20.056Z,3.72
2022-11-08T18:02:37.848Z,5.22
2022-11-08T18:04:54.916Z,4.72
2022-11-08T18:07:11.988Z,5.93
2022-11-08T18:09:29.093Z,6.60
2022-11-08T18:11:46.128Z,6.50
2022-11-08T18:14:03.157Z,6.65
2022-11-08T18:16:21.390Z,7.05
2022-11-08T18:18:38.396Z,7.15
2022-11-08T18:20:55.645Z,7.38
2022-11-08T18:23:12.600Z,6.07
2022-11-08T18:25:29.832Z,5.78
2022-11-08T18:27:47.153Z,6.40
2022-11-08T18:30:04.079Z,6.72
2022-11-08T18:32:21.113Z,7.82
2022-11-08T18:34:38.376Z,7.75
2022-11-08T18:36:55.415Z,8.25
2022-11-08T18:39:18.154Z,9.32
2022-11-08T18:41:36.666Z,8.27
2022-11-08T18:43:56.663Z,8.27
2022-11-08T18:46:14.940Z,7.15
2022-11-08T18:48:32.976Z,7.25
2022-11-08T18:50:50.217Z,7.65
2022-11-08T18:53:07.805Z,7.40
2022-11-08T18:55:26.302Z,7.38
2022-11-08T18:57:43.423Z,6.90
2022-11-08T19:00:01.748Z,6.25
2022-11-08T19:02:19.216Z,6.90
2022-11-08T19:04:36.605Z,5.38
2022-11-08T19:06:54.937Z,5.22
2022-11-08T19:09:12.137Z,5.38
2022-11-08T19:11:29.469Z,4.43
2022-11-08T19:13:46.493Z,4.18
2022-11-08T19:16:03.756Z,3.78
2022-11-08T19:18:20.954Z,3.45
2022-11-08T19:20:39.017Z,3.40
2022-11-08T19:22:55.993Z,3.50
2022-11-08T19:25:12.979Z,3.30
2022-11-08T19:27:30.025Z,3.25
2022-11-08T19:29:47.031Z,3.10
2022-11-08T19:32:04.479Z,2.97
2022-11-08T19:34:21.502Z,3.28
2022-11-08T19:36:38.754Z,3.47
2022-11-08T19:38:56.996Z,3.17
2022-11-08T19:41:13.952Z,3.38
2022-11-08T19:43:30.988Z,3.10
2022-11-08T19:45:51.695Z,3.28
2022-11-08T19:48:08.817Z,3.30
2022-11-08T19:50:25.771Z,4.10
2022-11-08T19:52:42.720Z,3.95
2022-11-08T19:54:59.992Z,4.10
2022-11-08T19:57:18.028Z,3.60
2022-11-08T19:59:35.037Z,4.00
2022-11-08T20:01:52.149Z,4.03
2022-11-08T20:04:09.729Z,4.30
2022-11-08T20:06:26.776Z,4.47
2022-11-08T20:08:44.072Z,4.60
2022-11-08T20:11:01.297Z,4.93
2022-11-08T20:13:18.205Z,5.15
2022-11-08T20:15:35.142Z,5.15
2022-11-08T20:17:52.483Z,5.10
2022-11-08T20:20:09.532Z,5.20
2022-11-08T20:22:26.396Z,5.28
2022-11-08T20:24:43.385Z,5.28
2022-11-08T20:27:00.440Z,5.60
2022-11-08T20:29:18.501Z,5.50
2022-11-08T20:31:35.532Z,5.80
2022-11-08T20:33:53.141Z,5.40
2022-11-08T20:36:10.583Z,5.28
2022-11-08T20:38:28.200Z,5.43
2022-11-08T20:40:45.252Z,5.25
2022-11-08T20:43:02.780Z,5.82
2022-11-08T20:45:19.670Z,5.50
2022-11-08T20:47:36.605Z,5.60
2022-11-08T20:49:53.579Z,4.65
2022-11-08T20:52:10.465Z,5.05
2022-11-08T20:54:27.383Z,5.20
2022-11-08T20:56:44.308Z,5.20
2022-11-08T20:59:02.232Z,5.13
2022-11-08T21:01:19.245Z,5.43
2022-11-08T21:03:37.246Z,5.00
2022-11-08T21:05:54.162Z,5.47
2022-11-08T21:10:48.497Z,4.75
2022-11-08T21:13:05.836Z,5.15
2022-11-08T21:15:27.023Z,5.45
2022-11-08T21:17:45.218Z,5.53
2022-11-08T21:20:02.474Z,5.43
2022-11-08T21:22:19.439Z,5.20
2022-11-08T21:24:36.715Z,5.63
2022-11-08T21:26:53.805Z,5.65
2022-11-08T21:29:10.884Z,5.20
2022-11-08T21:31:27.945Z,4.80
2022-11-08T21:33:44.842Z,4.90
2022-11-08T21:36:03.128Z,4.93
2022-11-08T21:38:20.420Z,5.05
2022-11-08T21:40:39.062Z,4.55
2022-11-08T21:42:57.076Z,4.78
2022-11-08T21:45:13.966Z,4.60
2022-11-08T21:47:31.129Z,4.40
2022-11-08T21:49:48.338Z,4.30
2022-11-08T21:52:05.333Z,4.25
2022-11-08T21:54:22.255Z,4.78
2022-11-08T21:56:40.473Z,4.43
2022-11-08T21:58:57.544Z,4.30
2022-11-08T22:01:14.918Z,4.60
2022-11-08T22:03:32.242Z,4.32
2022-11-08T22:05:49.152Z,4.70
2022-11-08T22:08:06.147Z,4.63
2022-11-08T22:10:23.236Z,4.85
2022-11-08T22:12:40.680Z,5.50
2022-11-08T22:14:59.796Z,5.00
2022-11-08T22:17:17.140Z,4.72
2022-11-08T22:19:35.387Z,5.43
2022-11-08T22:21:52.550Z,4.90
2022-11-08T22:24:09.961Z,4.47
2022-11-08T22:26:28.421Z,4.80
2022-11-08T22:28:45.736Z,4.57
2022-11-08T22:31:02.829Z,4.25
2022-11-08T22:33:19.740Z,4.70
2022-11-08T22:35:37.196Z,3.97
2022-11-08T22:37:54.604Z,4.25
2022-11-08T22:40:12.509Z,4.40
2022-11-08T22:42:31.065Z,4.63
2022-11-08T22:44:48.069Z,3.92
2022-11-08T22:47:05.424Z,4.30
2022-11-08T22:49:22.881Z,4.43
2022-11-08T22:51:40.044Z,4.10
2022-11-08T22:53:57.186Z,4.50
2022-11-08T22:56:15.279Z,4.20
2022-11-08T22:58:32.449Z,4.50
2022-11-08T23:00:50.026Z,4.22
2022-11-08T23:03:08.135Z,4.32
2022-11-08T23:05:26.466Z,4.63
2022-11-08T23:07:43.908Z,4.68
2022-11-08T23:10:01.192Z,4.60
2022-11-08T23:12:18.244Z,4.35
2022-11-08T23:14:37.480Z,4.40
2022-11-08T23:16:54.897Z,4.28
2022-11-08T23:19:13.435Z,3.90
2022-11-08T23:21:31.648Z,4.47
2022-11-08T23:23:48.727Z,4.72
2022-11-08T23:26:05.869Z,4.60
2022-11-08T23:28:22.800Z,4.97
2022-11-08T23:30:42.708Z,4.40
2022-11-08T23:33:00.050Z,4.53
2022-11-08T23:35:18.561Z,4.30
2022-11-08T23:37:35.469Z,4.10
2022-11-08T23:39:52.770Z,4.45
2022-11-08T23:42:09.909Z,4.40
2022-11-08T23:44:26.914Z,4.60
2022-11-08T23:46:44.327Z,4.47
2022-11-08T23:49:02.276Z,4.15
2022-11-08T23:51:19.395Z,4.25
2022-11-08T23:53:36.478Z,4.38
2022-11-08T23:55:53.664Z,4.20
2022-11-08T23:58:11.771Z,4.07
